sensor_id;sensor_type;location;lat;lon;timestamp;P1;durP1;ratioP1;P2;durP2;ratioP2
37903;SDS011;23738;50.422;18.758;2023-01-28T00:01:25;66.00;;;31.20;;
37903;SDS011;23738;50.422;18.758;2023-01-28T00:03:52;61.10;;;28.50;;
37903;SDS011;23738;50.422;18.758;2023-01-28T00:06:19;60.00;;;29.20;;
37903;SDS011;23738;50.422;18.758;2023-01-28T00:08:46;63.20;;;31.30;;
37903;SDS011;23738;50.422;18.758;2023-01-28T00:11:14;72.30;;;31.80;;
37903;SDS011;23738;50.422;18.758;2023-01-28T00:13:41;73.20;;;34.20;;
37903;SDS011;23738;50.422;18.758;2023-01-28T00:16:09;68.70;;;34.00;;
37903;SDS011;23738;50.422;18.758;2023-01-28T00:18:36;68.70;;;33.10;;
37903;SDS011;23738;50.422;18.758;2023-01-28T00:21:04;66.30;;;33.50;;
37903;SDS011;23738;50.422;18.758;2023-01-28T00:23:34;75.80;;;35.10;;
37903;SDS011;23738;50.422;18.758;2023-01-28T00:26:02;66.20;;;32.30;;
37903;SDS011;23738;50.422;18.758;2023-01-28T00:28:32;73.70;;;34.20;;
37903;SDS011;23738;50.422;18.758;2023-01-28T00:31:05;66.70;;;33.40;;
37903;SDS011;23738;50.422;18.758;2023-01-28T00:33:34;71.70;;;34.10;;
37903;SDS011;23738;50.422;18.758;2023-01-28T00:36:02;75.20;;;35.30;;
37903;SDS011;23738;50.422;18.758;2023-01-28T00:38:31;70.50;;;34.50;;
37903;SDS011;23738;50.422;18.758;2023-01-28T00:41:06;64.50;;;33.80;;
37903;SDS011;23738;50.422;18.758;2023-01-28T00:43:34;69.90;;;35.50;;
37903;SDS011;23738;50.422;18.758;2023-01-28T00:46:01;76.20;;;34.30;;
37903;SDS011;23738;50.422;18.758;2023-01-28T00:48:29;66.00;;;33.20;;
37903;SDS011;23738;50.422;18.758;2023-01-28T00:50:56;68.80;;;32.20;;
37903;SDS011;23738;50.422;18.758;2023-01-28T00:53:24;72.50;;;33.80;;
37903;SDS011;23738;50.422;18.758;2023-01-28T00:55:51;72.60;;;31.90;;
37903;SDS011;23738;50.422;18.758;2023-01-28T00:58:19;61.20;;;31.40;;
37903;SDS011;23738;50.422;18.758;2023-01-28T01:00:47;73.70;;;35.30;;
37903;SDS011;23738;50.422;18.758;2023-01-28T01:03:14;65.70;;;31.70;;
37903;SDS011;23738;50.422;18.758;2023-01-28T01:05:42;67.20;;;32.10;;
37903;SDS011;23738;50.422;18.758;2023-01-28T01:08:09;68.90;;;31.50;;
37903;SDS011;23738;50.422;18.758;2023-01-28T01:10:36;66.00;;;30.10;;
37903;SDS011;23738;50.422;18.758;2023-01-28T01:13:05;66.70;;;29.90;;
37903;SDS011;23738;50.422;18.758;2023-01-28T01:15:33;65.70;;;31.70;;
37903;SDS011;23738;50.422;18.758;2023-01-28T01:18:00;59.00;;;28.40;;
37903;SDS011;23738;50.422;18.758;2023-01-28T01:20:28;67.50;;;30.80;;
37903;SDS011;23738;50.422;18.758;2023-01-28T01:22:58;68.00;;;32.70;;
37903;SDS011;23738;50.422;18.758;2023-01-28T01:25:25;66.90;;;32.20;;
37903;SDS011;23738;50.422;18.758;2023-01-28T01:27:52;61.90;;;32.70;;
37903;SDS011;23738;50.422;18.758;2023-01-28T01:30:19;75.00;;;33.60;;
37903;SDS011;23738;50.422;18.758;2023-01-28T01:32:47;76.20;;;33.40;;
37903;SDS011;23738;50.422;18.758;2023-01-28T01:35:14;68.90;;;30.90;;
37903;SDS011;23738;50.422;18.758;2023-01-28T01:37:43;69.60;;;32.10;;
37903;SDS011;23738;50.422;18.758;2023-01-28T01:40:11;69.70;;;31.70;;
37903;SDS011;23738;50.422;18.758;2023-01-28T01:42:38;66.00;;;31.40;;
37903;SDS011;23738;50.422;18.758;2023-01-28T01:45:10;64.60;;;31.50;;
37903;SDS011;23738;50.422;18.758;2023-01-28T01:47:40;59.60;;;29.10;;
37903;SDS011;23738;50.422;18.758;2023-01-28T01:50:14;69.10;;;32.70;;
37903;SDS011;23738;50.422;18.758;2023-01-28T01:52:47;64.50;;;31.60;;
37903;SDS011;23738;50.422;18.758;2023-01-28T01:55:18;61.60;;;29.50;;
37903;SDS011;23738;50.422;18.758;2023-01-28T01:57:50;61.60;;;26.70;;
37903;SDS011;23738;50.422;18.758;2023-01-28T02:00:20;55.90;;;24.80;;
37903;SDS011;23738;50.422;18.758;2023-01-28T02:02:48;44.00;;;22.20;;
37903;SDS011;23738;50.422;18.758;2023-01-28T02:05:17;40.00;;;20.50;;
37903;SDS011;23738;50.422;18.758;2023-01-28T02:07:46;44.90;;;21.80;;
37903;SDS011;23738;50.422;18.758;2023-01-28T02:10:16;37.70;;;19.20;;
37903;SDS011;23738;50.422;18.758;2023-01-28T02:12:45;45.90;;;23.30;;
37903;SDS011;23738;50.422;18.758;2023-01-28T02:15:16;45.40;;;22.60;;
37903;SDS011;23738;50.422;18.758;2023-01-28T02:17:46;44.20;;;19.40;;
37903;SDS011;23738;50.422;18.758;2023-01-28T02:20:16;41.80;;;20.60;;
37903;SDS011;23738;50.422;18.758;2023-01-28T02:22:53;46.80;;;22.00;;
37903;SDS011;23738;50.422;18.758;2023-01-28T02:28:34;49.50;;;22.30;;
37903;SDS011;23738;50.422;18.758;2023-01-28T02:31:07;53.50;;;23.80;;
37903;SDS011;23738;50.422;18.758;2023-01-28T02:33:40;46.20;;;23.70;;
37903;SDS011;23738;50.422;18.758;2023-01-28T02:36:16;44.20;;;22.70;;
37903;SDS011;23738;50.422;18.758;2023-01-28T02:38:48;48.70;;;21.10;;
37903;SDS011;23738;50.422;18.758;2023-01-28T02:41:19;45.70;;;21.50;;
37903;SDS011;23738;50.422;18.758;2023-01-28T02:43:50;41.20;;;20.80;;
37903;SDS011;23738;50.422;18.758;2023-01-28T02:46:19;45.10;;;21.80;;
37903;SDS011;23738;50.422;18.758;2023-01-28T02:49:18;42.10;;;20.10;;
37903;SDS011;23738;50.422;18.758;2023-01-28T02:52:04;41.90;;;21.90;;
37903;SDS011;23738;50.422;18.758;2023-01-28T02:55:08;36.60;;;19.80;;
37903;SDS011;23738;50.422;18.758;2023-01-28T03:00:14;35.70;;;19.30;;
37903;SDS011;23738;50.422;18.758;2023-01-28T03:02:48;36.20;;;19.60;;
37903;SDS011;23738;50.422;18.758;2023-01-28T03:05:21;34.70;;;18.10;;
37903;SDS011;23738;50.422;18.758;2023-01-28T03:07:52;34.30;;;16.10;;
37903;SDS011;23738;50.422;18.758;2023-01-28T03:10:20;33.20;;;17.50;;
37903;SDS011;23738;50.422;18.758;2023-01-28T03:12:52;28.70;;;16.60;;
37903;SDS011;23738;50.422;18.758;2023-01-28T03:15:40;25.60;;;15.20;;
37903;SDS011;23738;50.422;18.758;2023-01-28T03:18:31;24.90;;;14.30;;
37903;SDS011;23738;50.422;18.758;2023-01-28T03:21:24;28.50;;;16.10;;
37903;SDS011;23738;50.422;18.758;2023-01-28T03:24:14;26.30;;;15.70;;
37903;SDS011;23738;50.422;18.758;2023-01-28T03:27:04;21.30;;;12.60;;
37903;SDS011;23738;50.422;18.758;2023-01-28T03:29:58;29.10;;;13.60;;
37903;SDS011;23738;50.422;18.758;2023-01-28T03:32:47;23.90;;;14.20;;
37903;SDS011;23738;50.422;18.758;2023-01-28T03:35:33;21.60;;;13.60;;
37903;SDS011;23738;50.422;18.758;2023-01-28T03:38:20;22.30;;;14.30;;
37903;SDS011;23738;50.422;18.758;2023-01-28T03:40:48;27.40;;;15.30;;
37903;SDS011;23738;50.422;18.758;2023-01-28T03:43:16;24.20;;;14.10;;
37903;SDS011;23738;50.422;18.758;2023-01-28T03:45:44;22.40;;;14.30;;
37903;SDS011;23738;50.422;18.758;2023-01-28T03:48:16;22.40;;;14.40;;
37903;SDS011;23738;50.422;18.758;2023-01-28T03:50:43;19.40;;;12.30;;
37903;SDS011;23738;50.422;18.758;2023-01-28T03:53:10;46.90;;;19.20;;
37903;SDS011;23738;50.422;18.758;2023-01-28T03:55:38;43.10;;;19.70;;
37903;SDS011;23738;50.422;18.758;2023-01-28T03:58:06;41.80;;;18.50;;
37903;SDS011;23738;50.422;18.758;2023-01-28T04:00:33;24.90;;;13.50;;
37903;SDS011;23738;50.422;18.758;2023-01-28T04:03:03;23.80;;;14.20;;
37903;SDS011;23738;50.422;18.758;2023-01-28T04:05:41;25.60;;;14.50;;
37903;SDS011;23738;50.422;18.758;2023-01-28T04:08:09;21.10;;;13.00;;
37903;SDS011;23738;50.422;18.758;2023-01-28T04:10:37;20.80;;;13.00;;
37903;SDS011;23738;50.422;18.758;2023-01-28T04:13:05;53.40;;;23.00;;
37903;SDS011;23738;50.422;18.758;2023-01-28T04:15:32;92.90;;;32.90;;
37903;SDS011;23738;50.422;18.758;2023-01-28T04:18:01;117.30;;;41.00;;
37903;SDS011;23738;50.422;18.758;2023-01-28T04:20:28;100.10;;;28.90;;
37903;SDS011;23738;50.422;18.758;2023-01-28T04:22:55;56.20;;;19.90;;
37903;SDS011;23738;50.422;18.758;2023-01-28T04:25:23;33.70;;;14.80;;
37903;SDS011;23738;50.422;18.758;2023-01-28T04:27:50;28.40;;;14.20;;
37903;SDS011;23738;50.422;18.758;2023-01-28T04:30:17;40.40;;;16.60;;
37903;SDS011;23738;50.422;18.758;2023-01-28T04:32:45;38.20;;;17.30;;
37903;SDS011;23738;50.422;18.758;2023-01-28T04:35:15;26.90;;;14.50;;
37903;SDS011;23738;50.422;18.758;2023-01-28T04:37:43;30.70;;;16.30;;
37903;SDS011;23738;50.422;18.758;2023-01-28T04:40:11;33.40;;;16.20;;
37903;SDS011;23738;50.422;18.758;2023-01-28T04:42:39;26.80;;;14.70;;
37903;SDS011;23738;50.422;18.758;2023-01-28T04:45:07;25.70;;;14.80;;
37903;SDS011;23738;50.422;18.758;2023-01-28T04:47:35;29.80;;;15.40;;
37903;SDS011;23738;50.422;18.758;2023-01-28T04:50:02;29.10;;;16.00;;
37903;SDS011;23738;50.422;18.758;2023-01-28T04:52:30;35.20;;;15.30;;
37903;SDS011;23738;50.422;18.758;2023-01-28T04:54:58;29.30;;;16.40;;
37903;SDS011;23738;50.422;18.758;2023-01-28T04:57:25;34.30;;;17.40;;
37903;SDS011;23738;50.422;18.758;2023-01-28T04:59:53;32.00;;;17.70;;
37903;SDS011;23738;50.422;18.758;2023-01-28T05:02:20;27.30;;;16.30;;
37903;SDS011;23738;50.422;18.758;2023-01-28T05:04:47;30.60;;;16.80;;
37903;SDS011;23738;50.422;18.758;2023-01-28T05:07:15;34.60;;;17.80;;
37903;SDS011;23738;50.422;18.758;2023-01-28T05:09:42;30.50;;;18.10;;
37903;SDS011;23738;50.422;18.758;2023-01-28T05:12:09;34.30;;;18.20;;
37903;SDS011;23738;50.422;18.758;2023-01-28T05:14:36;33.80;;;17.70;;
37903;SDS011;23738;50.422;18.758;2023-01-28T05:17:03;54.40;;;22.50;;
37903;SDS011;23738;50.422;18.758;2023-01-28T05:19:31;70.70;;;25.00;;
37903;SDS011;23738;50.422;18.758;2023-01-28T05:21:58;87.90;;;29.20;;
37903;SDS011;23738;50.422;18.758;2023-01-28T05:24:25;37.90;;;17.60;;
37903;SDS011;23738;50.422;18.758;2023-01-28T05:26:52;38.90;;;17.50;;
37903;SDS011;23738;50.422;18.758;2023-01-28T05:29:20;44.20;;;20.20;;
37903;SDS011;23738;50.422;18.758;2023-01-28T05:31:47;30.30;;;16.40;;
37903;SDS011;23738;50.422;18.758;2023-01-28T05:34:15;29.10;;;16.00;;
37903;SDS011;23738;50.422;18.758;2023-01-28T05:36:42;28.40;;;15.90;;
37903;SDS011;23738;50.422;18.758;2023-01-28T05:39:09;21.50;;;14.60;;
37903;SDS011;23738;50.422;18.758;2023-01-28T05:41:36;25.20;;;14.90;;
37903;SDS011;23738;50.422;18.758;2023-01-28T05:44:03;26.00;;;15.90;;
37903;SDS011;23738;50.422;18.758;2023-01-28T05:46:31;32.10;;;17.20;;
37903;SDS011;23738;50.422;18.758;2023-01-28T05:48:58;38.80;;;16.40;;
37903;SDS011;23738;50.422;18.758;2023-01-28T05:51:25;35.50;;;15.70;;
37903;SDS011;23738;50.422;18.758;2023-01-28T05:53:53;36.20;;;14.90;;
37903;SDS011;23738;50.422;18.758;2023-01-28T05:56:20;33.50;;;16.00;;
37903;SDS011;23738;50.422;18.758;2023-01-28T05:58:47;37.10;;;16.80;;
37903;SDS011;23738;50.422;18.758;2023-01-28T06:01:14;36.30;;;17.30;;
37903;SDS011;23738;50.422;18.758;2023-01-28T06:03:41;33.30;;;14.90;;
37903;SDS011;23738;50.422;18.758;2023-01-28T06:06:09;26.90;;;14.90;;
37903;SDS011;23738;50.422;18.758;2023-01-28T06:08:36;20.80;;;12.80;;
37903;SDS011;23738;50.422;18.758;2023-01-28T06:11:03;28.70;;;15.10;;
37903;SDS011;23738;50.422;18.758;2023-01-28T06:13:31;24.30;;;13.20;;
37903;SDS011;23738;50.422;18.758;2023-01-28T06:15:58;29.90;;;13.30;;
37903;SDS011;23738;50.422;18.758;2023-01-28T06:18:25;31.20;;;15.50;;
37903;SDS011;23738;50.422;18.758;2023-01-28T06:20:52;25.10;;;14.20;;
37903;SDS011;23738;50.422;18.758;2023-01-28T06:23:20;22.40;;;13.80;;
37903;SDS011;23738;50.422;18.758;2023-01-28T06:25:47;27.00;;;14.10;;
37903;SDS011;23738;50.422;18.758;2023-01-28T06:28:19;26.60;;;14.90;;
37903;SDS011;23738;50.422;18.758;2023-01-28T06:30:47;33.90;;;19.30;;
37903;SDS011;23738;50.422;18.758;2023-01-28T06:33:15;43.00;;;21.00;;
37903;SDS011;23738;50.422;18.758;2023-01-28T06:35:42;37.50;;;18.70;;
37903;SDS011;23738;50.422;18.758;2023-01-28T06:38:09;31.90;;;17.90;;
37903;SDS011;23738;50.422;18.758;2023-01-28T06:40:37;26.20;;;15.70;;
37903;SDS011;23738;50.422;18.758;2023-01-28T06:43:04;53.70;;;22.60;;
37903;SDS011;23738;50.422;18.758;2023-01-28T06:45:32;60.30;;;22.90;;
37903;SDS011;23738;50.422;18.758;2023-01-28T06:47:59;41.50;;;19.10;;
37903;SDS011;23738;50.422;18.758;2023-01-28T06:50:26;25.60;;;14.10;;
37903;SDS011;23738;50.422;18.758;2023-01-28T06:52:53;20.50;;;12.40;;
37903;SDS011;23738;50.422;18.758;2023-01-28T06:55:21;18.20;;;11.40;;
37903;SDS011;23738;50.422;18.758;2023-01-28T06:57:48;18.00;;;11.50;;
37903;SDS011;23738;50.422;18.758;2023-01-28T07:00:16;22.00;;;13.10;;
37903;SDS011;23738;50.422;18.758;2023-01-28T07:02:44;17.10;;;11.90;;
37903;SDS011;23738;50.422;18.758;2023-01-28T07:05:12;17.30;;;11.50;;
37903;SDS011;23738;50.422;18.758;2023-01-28T07:07:39;12.20;;;9.50;;
37903;SDS011;23738;50.422;18.758;2023-01-28T07:10:07;18.00;;;11.40;;
37903;SDS011;23738;50.422;18.758;2023-01-28T07:12:36;17.70;;;10.80;;
37903;SDS011;23738;50.422;18.758;2023-01-28T07:15:04;14.60;;;10.10;;
37903;SDS011;23738;50.422;18.758;2023-01-28T07:17:35;15.50;;;10.30;;
37903;SDS011;23738;50.422;18.758;2023-01-28T07:20:08;14.70;;;10.20;;
37903;SDS011;23738;50.422;18.758;2023-01-28T07:22:38;18.10;;;11.80;;
37903;SDS011;23738;50.422;18.758;2023-01-28T07:25:08;17.50;;;12.10;;
37903;SDS011;23738;50.422;18.758;2023-01-28T07:27:36;15.90;;;11.40;;
37903;SDS011;23738;50.422;18.758;2023-01-28T07:30:04;18.00;;;11.00;;
37903;SDS011;23738;50.422;18.758;2023-01-28T07:32:32;16.90;;;11.50;;
37903;SDS011;23738;50.422;18.758;2023-01-28T07:34:59;20.00;;;12.10;;
37903;SDS011;23738;50.422;18.758;2023-01-28T07:37:27;15.90;;;11.80;;
37903;SDS011;23738;50.422;18.758;2023-01-28T07:39:54;16.60;;;11.40;;
37903;SDS011;23738;50.422;18.758;2023-01-28T07:42:21;15.70;;;10.90;;
37903;SDS011;23738;50.422;18.758;2023-01-28T07:44:49;27.10;;;12.60;;
37903;SDS011;23738;50.422;18.758;2023-01-28T07:47:17;17.20;;;10.80;;
37903;SDS011;23738;50.422;18.758;2023-01-28T07:49:45;14.10;;;10.20;;
37903;SDS011;23738;50.422;18.758;2023-01-28T07:52:12;16.40;;;10.50;;
37903;SDS011;23738;50.422;18.758;2023-01-28T07:54:40;20.30;;;12.90;;
37903;SDS011;23738;50.422;18.758;2023-01-28T07:57:08;22.70;;;14.90;;
37903;SDS011;23738;50.422;18.758;2023-01-28T07:59:35;22.90;;;14.30;;
37903;SDS011;23738;50.422;18.758;2023-01-28T08:02:03;23.60;;;14.50;;
37903;SDS011;23738;50.422;18.758;2023-01-28T08:04:31;20.30;;;14.40;;
37903;SDS011;23738;50.422;18.758;2023-01-28T08:06:59;22.30;;;13.60;;
37903;SDS011;23738;50.422;18.758;2023-01-28T08:09:26;18.10;;;12.30;;
37903;SDS011;23738;50.422;18.758;2023-01-28T08:11:54;18.10;;;12.60;;
37903;SDS011;23738;50.422;18.758;2023-01-28T08:14:21;20.00;;;14.00;;
37903;SDS011;23738;50.422;18.758;2023-01-28T08:16:48;16.90;;;11.60;;
37903;SDS011;23738;50.422;18.758;2023-01-28T08:19:15;18.40;;;12.50;;
37903;SDS011;23738;50.422;18.758;2023-01-28T08:21:43;17.50;;;11.40;;
37903;SDS011;23738;50.422;18.758;2023-01-28T08:24:13;19.90;;;12.60;;
37903;SDS011;23738;50.422;18.758;2023-01-28T08:26:40;20.20;;;13.30;;
37903;SDS011;23738;50.422;18.758;2023-01-28T08:29:08;21.60;;;14.30;;
37903;SDS011;23738;50.422;18.758;2023-01-28T08:31:35;22.70;;;14.50;;
37903;SDS011;23738;50.422;18.758;2023-01-28T08:34:02;20.80;;;13.90;;
37903;SDS011;23738;50.422;18.758;2023-01-28T08:36:29;17.10;;;12.00;;
37903;SDS011;23738;50.422;18.758;2023-01-28T08:38:56;17.70;;;12.50;;
37903;SDS011;23738;50.422;18.758;2023-01-28T08:41:23;19.20;;;13.50;;
37903;SDS011;23738;50.422;18.758;2023-01-28T08:43:51;20.20;;;13.30;;
37903;SDS011;23738;50.422;18.758;2023-01-28T08:46:18;20.00;;;12.10;;
37903;SDS011;23738;50.422;18.758;2023-01-28T08:48:45;21.60;;;12.40;;
37903;SDS011;23738;50.422;18.758;2023-01-28T08:51:14;13.80;;;11.00;;
37903;SDS011;23738;50.422;18.758;2023-01-28T08:53:41;16.50;;;11.70;;
37903;SDS011;23738;50.422;18.758;2023-01-28T08:56:08;14.60;;;11.40;;
37903;SDS011;23738;50.422;18.758;2023-01-28T08:58:35;14.00;;;10.90;;
37903;SDS011;23738;50.422;18.758;2023-01-28T09:01:03;18.50;;;13.20;;
37903;SDS011;23738;50.422;18.758;2023-01-28T09:03:31;25.40;;;12.30;;
37903;SDS011;23738;50.422;18.758;2023-01-28T09:06:02;15.00;;;11.50;;
37903;SDS011;23738;50.422;18.758;2023-01-28T09:08:30;20.00;;;11.50;;
37903;SDS011;23738;50.422;18.758;2023-01-28T09:10:57;18.30;;;12.30;;
37903;SDS011;23738;50.422;18.758;2023-01-28T09:13:26;15.80;;;10.90;;
37903;SDS011;23738;50.422;18.758;2023-01-28T09:15:53;14.30;;;10.70;;
37903;SDS011;23738;50.422;18.758;2023-01-28T09:18:20;15.00;;;10.30;;
37903;SDS011;23738;50.422;18.758;2023-01-28T09:20:48;14.40;;;10.40;;
37903;SDS011;23738;50.422;18.758;2023-01-28T09:23:15;19.20;;;11.20;;
37903;SDS011;23738;50.422;18.758;2023-01-28T09:25:42;14.40;;;10.00;;
37903;SDS011;23738;50.422;18.758;2023-01-28T09:28:10;16.80;;;10.90;;
37903;SDS011;23738;50.422;18.758;2023-01-28T09:30:37;14.20;;;11.60;;
37903;SDS011;23738;50.422;18.758;2023-01-28T09:33:04;17.70;;;13.90;;
37903;SDS011;23738;50.422;18.758;2023-01-28T09:35:32;14.00;;;11.80;;
37903;SDS011;23738;50.422;18.758;2023-01-28T09:38:00;17.00;;;12.00;;
37903;SDS011;23738;50.422;18.758;2023-01-28T09:40:30;16.70;;;12.10;;
37903;SDS011;23738;50.422;18.758;2023-01-28T09:43:11;19.40;;;12.30;;
37903;SDS011;23738;50.422;18.758;2023-01-28T09:45:53;22.60;;;12.50;;
37903;SDS011;23738;50.422;18.758;2023-01-28T09:48:23;21.10;;;13.20;;
37903;SDS011;23738;50.422;18.758;2023-01-28T09:50:55;20.90;;;13.70;;
37903;SDS011;23738;50.422;18.758;2023-01-28T09:53:24;16.60;;;11.60;;
37903;SDS011;23738;50.422;18.758;2023-01-28T09:55:56;13.70;;;10.30;;
37903;SDS011;23738;50.422;18.758;2023-01-28T09:58:26;12.70;;;10.00;;
37903;SDS011;23738;50.422;18.758;2023-01-28T10:00:55;14.80;;;10.50;;
37903;SDS011;23738;50.422;18.758;2023-01-28T10:03:41;15.90;;;12.40;;
37903;SDS011;23738;50.422;18.758;2023-01-28T10:06:18;17.00;;;13.10;;
37903;SDS011;23738;50.422;18.758;2023-01-28T10:14:46;14.00;;;10.70;;
37903;SDS011;23738;50.422;18.758;2023-01-28T10:17:35;14.00;;;10.80;;
37903;SDS011;23738;50.422;18.758;2023-01-28T10:20:07;13.30;;;11.20;;
37903;SDS011;23738;50.422;18.758;2023-01-28T10:22:46;13.70;;;10.70;;
37903;SDS011;23738;50.422;18.758;2023-01-28T10:25:19;15.30;;;12.30;;
37903;SDS011;23738;50.422;18.758;2023-01-28T10:27:48;21.60;;;13.30;;
37903;SDS011;23738;50.422;18.758;2023-01-28T10:30:18;16.80;;;10.70;;
37903;SDS011;23738;50.422;18.758;2023-01-28T10:32:50;15.10;;;10.40;;
37903;SDS011;23738;50.422;18.758;2023-01-28T10:35:19;32.50;;;12.80;;
37903;SDS011;23738;50.422;18.758;2023-01-28T10:37:47;20.00;;;13.00;;
37903;SDS011;23738;50.422;18.758;2023-01-28T10:40:15;26.80;;;12.40;;
37903;SDS011;23738;50.422;18.758;2023-01-28T10:42:43;17.60;;;12.60;;
37903;SDS011;23738;50.422;18.758;2023-01-28T10:45:15;20.90;;;13.10;;
37903;SDS011;23738;50.422;18.758;2023-01-28T10:47:46;19.40;;;13.50;;
37903;SDS011;23738;50.422;18.758;2023-01-28T10:50:19;19.20;;;12.50;;
37903;SDS011;23738;50.422;18.758;2023-01-28T10:52:53;18.90;;;12.50;;
37903;SDS011;23738;50.422;18.758;2023-01-28T10:55:22;14.20;;;11.50;;
37903;SDS011;23738;50.422;18.758;2023-01-28T10:57:52;17.90;;;12.40;;
37903;SDS011;23738;50.422;18.758;2023-01-28T11:00:24;18.10;;;13.10;;
37903;SDS011;23738;50.422;18.758;2023-01-28T11:02:55;20.70;;;14.00;;
37903;SDS011;23738;50.422;18.758;2023-01-28T11:05:23;25.00;;;15.50;;
37903;SDS011;23738;50.422;18.758;2023-01-28T11:08:02;17.50;;;12.80;;
37903;SDS011;23738;50.422;18.758;2023-01-28T11:10:32;22.10;;;11.80;;
37903;SDS011;23738;50.422;18.758;2023-01-28T11:13:02;20.60;;;13.20;;
37903;SDS011;23738;50.422;18.758;2023-01-28T11:15:31;18.20;;;12.90;;
37903;SDS011;23738;50.422;18.758;2023-01-28T11:18:00;20.30;;;14.30;;
37903;SDS011;23738;50.422;18.758;2023-01-28T11:20:33;35.70;;;19.10;;
37903;SDS011;23738;50.422;18.758;2023-01-28T11:23:03;32.30;;;17.70;;
37903;SDS011;23738;50.422;18.758;2023-01-28T11:25:31;28.40;;;17.10;;
37903;SDS011;23738;50.422;18.758;2023-01-28T11:28:00;30.60;;;16.70;;
37903;SDS011;23738;50.422;18.758;2023-01-28T11:30:31;31.20;;;16.40;;
37903;SDS011;23738;50.422;18.758;2023-01-28T11:33:02;32.00;;;17.20;;
37903;SDS011;23738;50.422;18.758;2023-01-28T11:35:38;37.50;;;19.60;;
37903;SDS011;23738;50.422;18.758;2023-01-28T11:38:12;27.70;;;17.70;;
37903;SDS011;23738;50.422;18.758;2023-01-28T11:40:48;32.80;;;18.60;;
37903;SDS011;23738;50.422;18.758;2023-01-28T11:43:17;31.90;;;18.20;;
37903;SDS011;23738;50.422;18.758;2023-01-28T11:45:48;34.50;;;18.60;;
37903;SDS011;23738;50.422;18.758;2023-01-28T11:48:27;26.50;;;14.60;;
37903;SDS011;23738;50.422;18.758;2023-01-28T11:51:01;33.40;;;16.00;;
37903;SDS011;23738;50.422;18.758;2023-01-28T11:56:44;35.00;;;17.80;;
37903;SDS011;23738;50.422;18.758;2023-01-28T11:59:32;28.60;;;16.70;;
37903;SDS011;23738;50.422;18.758;2023-01-28T12:02:15;26.80;;;16.40;;
37903;SDS011;23738;50.422;18.758;2023-01-28T12:07:36;31.80;;;16.70;;
37903;SDS011;23738;50.422;18.758;2023-01-28T12:12:46;24.90;;;15.50;;
37903;SDS011;23738;50.422;18.758;2023-01-28T12:15:29;27.40;;;15.60;;
37903;SDS011;23738;50.422;18.758;2023-01-28T12:18:16;27.70;;;16.50;;
37903;SDS011;23738;50.422;18.758;2023-01-28T12:20:58;27.90;;;17.40;;
37903;SDS011;23738;50.422;18.758;2023-01-28T12:23:35;30.80;;;18.00;;
37903;SDS011;23738;50.422;18.758;2023-01-28T12:26:14;33.80;;;17.90;;
37903;SDS011;23738;50.422;18.758;2023-01-28T12:28:54;25.20;;;16.20;;
37903;SDS011;23738;50.422;18.758;2023-01-28T12:31:32;25.80;;;16.40;;
37903;SDS011;23738;50.422;18.758;2023-01-28T12:37:25;25.90;;;15.60;;
37903;SDS011;23738;50.422;18.758;2023-01-28T12:40:09;26.40;;;17.20;;
37903;SDS011;23738;50.422;18.758;2023-01-28T12:42:46;32.20;;;18.10;;
37903;SDS011;23738;50.422;18.758;2023-01-28T12:45:19;30.70;;;17.30;;
37903;SDS011;23738;50.422;18.758;2023-01-28T12:47:53;35.60;;;19.90;;
37903;SDS011;23738;50.422;18.758;2023-01-28T12:50:26;33.90;;;19.60;;
37903;SDS011;23738;50.422;18.758;2023-01-28T12:53:00;31.40;;;18.90;;
37903;SDS011;23738;50.422;18.758;2023-01-28T12:55:40;30.00;;;18.30;;
37903;SDS011;23738;50.422;18.758;2023-01-28T12:58:11;34.70;;;18.40;;
37903;SDS011;23738;50.422;18.758;2023-01-28T13:00:45;30.30;;;16.90;;
37903;SDS011;23738;50.422;18.758;2023-01-28T13:03:18;31.90;;;16.50;;
37903;SDS011;23738;50.422;18.758;2023-01-28T13:05:50;26.10;;;15.90;;
37903;SDS011;23738;50.422;18.758;2023-01-28T13:08:21;32.30;;;18.10;;
37903;SDS011;23738;50.422;18.758;2023-01-28T13:10:50;33.20;;;19.20;;
37903;SDS011;23738;50.422;18.758;2023-01-28T13:13:21;40.20;;;21.40;;
37903;SDS011;23738;50.422;18.758;2023-01-28T13:15:54;70.40;;;31.60;;
37903;SDS011;23738;50.422;18.758;2023-01-28T13:18:32;73.90;;;35.40;;
37903;SDS011;23738;50.422;18.758;2023-01-28T13:21:11;66.60;;;30.60;;
37903;SDS011;23738;50.422;18.758;2023-01-28T13:23:41;85.80;;;39.00;;
37903;SDS011;23738;50.422;18.758;2023-01-28T13:26:24;104.30;;;50.10;;
37903;SDS011;23738;50.422;18.758;2023-01-28T13:29:06;108.40;;;56.70;;
37903;SDS011;23738;50.422;18.758;2023-01-28T13:31:43;123.20;;;52.00;;
37903;SDS011;23738;50.422;18.758;2023-01-28T13:34:25;91.70;;;41.40;;
37903;SDS011;23738;50.422;18.758;2023-01-28T13:36:59;94.40;;;39.50;;
37903;SDS011;23738;50.422;18.758;2023-01-28T13:39:29;95.00;;;37.10;;
37903;SDS011;23738;50.422;18.758;2023-01-28T13:42:18;98.90;;;39.90;;
37903;SDS011;23738;50.422;18.758;2023-01-28T13:44:48;96.80;;;38.80;;
37903;SDS011;23738;50.422;18.758;2023-01-28T13:47:20;98.40;;;40.80;;
37903;SDS011;23738;50.422;18.758;2023-01-28T13:49:53;78.10;;;34.30;;
37903;SDS011;23738;50.422;18.758;2023-01-28T13:52:24;74.00;;;32.40;;
37903;SDS011;23738;50.422;18.758;2023-01-28T13:54:55;94.60;;;38.50;;
37903;SDS011;23738;50.422;18.758;2023-01-28T13:57:35;97.70;;;39.10;;
37903;SDS011;23738;50.422;18.758;2023-01-28T14:00:20;115.10;;;46.90;;
37903;SDS011;23738;50.422;18.758;2023-01-28T14:03:06;115.20;;;41.00;;
37903;SDS011;23738;50.422;18.758;2023-01-28T14:06:01;107.50;;;39.80;;
37903;SDS011;23738;50.422;18.758;2023-01-28T14:08:59;98.40;;;42.30;;
37903;SDS011;23738;50.422;18.758;2023-01-28T14:11:53;107.80;;;43.80;;
37903;SDS011;23738;50.422;18.758;2023-01-28T14:14:46;112.50;;;46.80;;
37903;SDS011;23738;50.422;18.758;2023-01-28T14:17:33;93.70;;;40.10;;
37903;SDS011;23738;50.422;18.758;2023-01-28T14:20:06;106.90;;;44.70;;
37903;SDS011;23738;50.422;18.758;2023-01-28T14:22:43;100.40;;;42.50;;
37903;SDS011;23738;50.422;18.758;2023-01-28T14:25:11;81.10;;;32.70;;
37903;SDS011;23738;50.422;18.758;2023-01-28T14:27:42;79.70;;;32.00;;
37903;SDS011;23738;50.422;18.758;2023-01-28T14:30:16;74.20;;;30.90;;
37903;SDS011;23738;50.422;18.758;2023-01-28T14:32:50;62.90;;;26.70;;
37903;SDS011;23738;50.422;18.758;2023-01-28T14:35:20;67.60;;;30.70;;
37903;SDS011;23738;50.422;18.758;2023-01-28T14:37:54;67.90;;;30.00;;
37903;SDS011;23738;50.422;18.758;2023-01-28T14:40:23;60.00;;;29.10;;
37903;SDS011;23738;50.422;18.758;2023-01-28T14:42:51;57.20;;;28.10;;
37903;SDS011;23738;50.422;18.758;2023-01-28T14:45:28;80.10;;;35.70;;
37903;SDS011;23738;50.422;18.758;2023-01-28T14:48:10;62.70;;;29.30;;
37903;SDS011;23738;50.422;18.758;2023-01-28T14:50:51;72.40;;;33.90;;
37903;SDS011;23738;50.422;18.758;2023-01-28T14:53:33;79.40;;;33.90;;
37903;SDS011;23738;50.422;18.758;2023-01-28T14:56:14;66.70;;;29.80;;